Weather History for Paynesville, MN

Change the Weather History Date:

Monday, January 27, 2014

  Actual Average (KLJF) Record (KLJF)
Temperature  
Mean Temperature -15 °F -  
Max Temperature -10 °F 20 °F 47 °F (1989)
Min Temperature -20 °F 0 °F -22 °F (1955)
Degree Days  
Heating Degree Days 80    
Moisture  
Dew Point -24 °F    
Average Humidity 65    
Maximum Humidity 76    
Minimum Humidity 60    
Precipitation  
Precipitation 0.00 in - - ()
Sea Level Pressure  
Sea Level Pressure 30.32 in    
Wind  
Wind Speed 13 mph (WNW)    
Max Wind Speed 18 mph    
Max Gust Speed 24 mph    
Visibility 10 miles    
Events      
Averages and records for this station are not official NWS values.
T = Trace of Precipitation, MM = Missing Value Source: NWS Daily Summary

Daily Weather History Graph

Daily Weather History Graph

Search for Another Location

Airport:

Trip Planner

Search our weather history database for the weather conditions in past years. The results will help you decide how hot, cold, wet, or windy it might be!

Date:

Astronomy

Jan. 27, 2014 Rise Set
Actual Time 7:45 AM CST 5:18 PM CST
Civil Twilight 7:13 AM CST 5:50 PM CST
Nautical Twilight 6:37 AM CST 6:26 PM CST
Astronomical Twilight 6:02 AM CST 7:01 PM CST
Moon 4:29 AM CST (1/27) 2:03 PM CST (1/27)
Length of Visible Light 10h 37m
Length of Day
9h 33m
Waning Crescent, 14% of the Moon is Illuminated
Jan 27
Waning Crescent
Jan 30
New
Feb 6
First Quarter
Feb 14
Full
Feb 22
Last Quarter

Hourly Weather History & Observations

Time (CST) Temp. Windchill Dew Point Humidity Pressure Visibility Wind Dir Wind Speed Gust Speed Precip Events Conditions
12:13 AM -12.5 °F -33.6 °F -21.1 °F 65% 30.13 in 10.0 mi WNW 12.7 mph 21.9 mph N/A   Clear
12:32 AM -12.8 °F -37.3 °F -21.1 °F 67% 30.15 in 10.0 mi WNW 17.3 mph 24.2 mph N/A   Clear
12:52 AM -13.4 °F -38.0 °F -21.5 °F 67% 30.16 in 10.0 mi WNW 17.3 mph 24.2 mph N/A   Clear
1:12 AM -13.9 °F -37.2 °F -21.6 °F 68% 30.17 in 10.0 mi WNW 15.0 mph - N/A   Clear
1:33 AM -13.9 °F -36.3 °F -22.2 °F 66% 30.18 in 10.0 mi WNW 13.8 mph 20.7 mph N/A   Clear
1:52 AM -14.3 °F -35.9 °F -22.9 °F 65% 30.19 in 10.0 mi WNW 12.7 mph - N/A   Clear
2:12 AM -14.8 °F -38.3 °F -23.1 °F 66% 30.19 in 10.0 mi WNW 15.0 mph 19.6 mph N/A   Clear
2:33 AM -15.2 °F -37.9 °F -23.8 °F 65% 30.20 in 10.0 mi WNW 13.8 mph 21.9 mph N/A   Clear
2:52 AM -15.2 °F -37.9 °F -23.8 °F 65% 30.21 in 10.0 mi WNW 13.8 mph 20.7 mph N/A   Clear
3:13 AM -15.3 °F -38.2 °F -24.0 °F 65% 30.21 in 10.0 mi WNW 13.8 mph 21.9 mph N/A   Clear
3:32 AM -15.3 °F -39.0 °F -24.2 °F 64% 30.22 in 10.0 mi WNW 15.0 mph 20.7 mph N/A   Clear
3:52 AM -15.3 °F -37.3 °F -24.5 °F 63% 30.22 in 10.0 mi WNW 12.7 mph 16.1 mph N/A   Clear
4:13 AM -15.7 °F -36.8 °F -24.7 °F 64% 30.24 in 10.0 mi NW 11.5 mph 18.4 mph N/A   Clear
4:32 AM -15.9 °F -38.0 °F -24.3 °F 66% 30.25 in 10.0 mi NW 12.7 mph 18.4 mph N/A   Clear
4:52 AM -16.1 °F -39.1 °F -24.9 °F 64% 30.25 in 10.0 mi NW 13.8 mph 17.3 mph N/A   Clear
5:12 AM -16.6 °F -42.1 °F -25.8 °F 63% 30.25 in 10.0 mi NW 17.3 mph 21.9 mph N/A   Clear
5:32 AM -16.6 °F -36.8 °F -26.5 °F 61% 30.26 in 10.0 mi NW 10.4 mph 20.7 mph N/A   Clear
5:53 AM -16.8 °F -38.1 °F -26.5 °F 61% 30.28 in 10.0 mi NW 11.5 mph 17.3 mph N/A   Clear
6:12 AM -17.0 °F -40.2 °F -26.7 °F 61% 30.28 in 10.0 mi NW 13.8 mph 20.7 mph N/A   Clear
6:33 AM -17.1 °F -40.5 °F -26.7 °F 62% 30.29 in 10.0 mi NW 13.8 mph 20.7 mph N/A   Clear
6:52 AM -17.7 °F -39.3 °F -27.4 °F 61% 30.30 in 10.0 mi WNW 11.5 mph - N/A   Clear
7:12 AM -17.9 °F -39.5 °F -27.4 °F 62% 30.31 in 10.0 mi WNW 11.5 mph 16.1 mph N/A   Clear
7:32 AM -18.2 °F -39.9 °F -27.4 °F 63% 30.32 in 10.0 mi WNW 11.5 mph 19.6 mph N/A   Clear
7:52 AM -18.4 °F -39.1 °F -27.4 °F 63% 30.33 in 10.0 mi WNW 10.4 mph - N/A   Clear
8:13 AM -18.4 °F -40.2 °F -27.4 °F 63% 30.33 in 10.0 mi WNW 11.5 mph 16.1 mph N/A   Clear
8:32 AM -18.0 °F -37.5 °F -27.4 °F 62% 30.34 in 10.0 mi WNW 9.2 mph - N/A   Clear
8:53 AM -17.7 °F -40.2 °F -27.4 °F 61% 30.35 in 10.0 mi WNW 12.7 mph - N/A   Clear
9:12 AM -17.5 °F -38.0 °F -26.7 °F 63% 30.36 in 10.0 mi WNW 10.4 mph 17.3 mph N/A   Clear
9:32 AM -16.8 °F -39.1 °F -26.7 °F 61% 30.37 in 10.0 mi WNW 12.7 mph 19.6 mph N/A   Clear
9:52 AM -16.2 °F -38.4 °F -26.5 °F 60% 30.38 in 10.0 mi WNW 12.7 mph 17.3 mph N/A   Clear
10:12 AM -15.9 °F -38.0 °F -25.8 °F 61% 30.38 in 10.0 mi WNW 12.7 mph - N/A   Clear
10:33 AM -14.8 °F -36.6 °F -25.1 °F 60% 30.38 in 10.0 mi WNW 12.7 mph 17.3 mph N/A   Clear
10:53 AM -14.8 °F -37.5 °F -24.9 °F 61% 30.38 in 10.0 mi WNW 13.8 mph - N/A   Clear
11:12 AM -13.9 °F -37.2 °F -24.2 °F 60% 30.39 in 10.0 mi WNW 15.0 mph 21.9 mph N/A   Clear
11:32 AM -13.5 °F -38.9 °F -23.3 °F 62% 30.40 in 7.0 mi West 18.4 mph 23.0 mph N/A   Clear
11:53 AM -13.0 °F -36.0 °F -23.1 °F 61% 30.40 in 10.0 mi WNW 15.0 mph 21.9 mph N/A   Clear
12:12 PM -12.5 °F -36.1 °F -22.5 °F 61% 30.39 in 10.0 mi WNW 16.1 mph 20.7 mph N/A   Clear
12:32 PM -12.1 °F -34.9 °F -22.2 °F 61% 30.38 in 10.0 mi WNW 15.0 mph 20.7 mph N/A   Clear
12:53 PM -11.6 °F -33.4 °F -21.8 °F 60% 30.39 in 10.0 mi WNW 13.8 mph - N/A   Clear
1:13 PM -10.8 °F -31.6 °F -21.3 °F 60% 30.39 in 10.0 mi West 12.7 mph 18.4 mph N/A   Clear
1:32 PM -10.7 °F -31.4 °F -20.6 °F 62% 30.38 in 10.0 mi WNW 12.7 mph - N/A   Clear
1:52 PM -10.1 °F -32.3 °F -20.2 °F 61% 30.38 in 10.0 mi West 15.0 mph 18.4 mph N/A   Clear
2:13 PM -10.3 °F -29.0 °F -20.4 °F 61% 30.38 in 10.0 mi West 10.4 mph - N/A   Clear
2:33 PM -10.3 °F -32.6 °F -20.2 °F 62% 30.37 in 10.0 mi West 15.0 mph - N/A   Clear
2:52 PM -10.3 °F -32.6 °F -20.4 °F 61% 30.37 in 10.0 mi West 15.0 mph - N/A   Clear
3:13 PM -10.3 °F -33.3 °F -20.4 °F 61% 30.37 in 10.0 mi West 16.1 mph - N/A   Clear
3:32 PM -10.3 °F -34.6 °F -20.2 °F 62% 30.37 in 10.0 mi West 18.4 mph - N/A   Clear
3:52 PM -10.3 °F -34.0 °F -20.2 °F 62% 30.38 in 10.0 mi West 17.3 mph 21.9 mph N/A   Clear
4:12 PM -10.3 °F -30.9 °F -20.2 °F 62% 30.38 in 10.0 mi West 12.7 mph - N/A   Clear
4:32 PM -10.8 °F -32.5 °F -20.7 °F 62% 30.38 in 10.0 mi West 13.8 mph 18.4 mph N/A   Clear
4:53 PM -11.4 °F -33.1 °F -20.9 °F 63% 30.38 in 10.0 mi WNW 13.8 mph 20.7 mph N/A   Clear
5:13 PM -12.1 °F -34.1 °F -21.5 °F 63% 30.38 in 10.0 mi West 13.8 mph 19.6 mph N/A   Clear
5:32 PM -12.6 °F -31.9 °F -21.5 °F 65% 30.38 in 10.0 mi West 10.4 mph - N/A   Clear
5:52 PM -13.4 °F -30.4 °F -21.5 °F 67% 30.38 in 10.0 mi West 8.1 mph - N/A   Clear
6:12 PM -13.9 °F -29.7 °F -21.6 °F 68% 30.38 in 10.0 mi West 6.9 mph - N/A   Clear
6:32 PM -14.8 °F -30.8 °F -22.2 °F 69% 30.38 in 10.0 mi West 6.9 mph - N/A   Clear
6:53 PM -15.9 °F -28.4 °F -23.3 °F 69% 30.38 in 10.0 mi West 4.6 mph - N/A   Clear
7:12 PM -17.7 °F -30.5 °F -24.7 °F 70% 30.38 in 10.0 mi West 4.6 mph - N/A   Clear
7:32 PM -16.6 °F -29.3 °F -23.8 °F 70% 30.38 in 10.0 mi WSW 4.6 mph - N/A   Clear
7:53 PM -16.8 °F -27.0 °F -24.0 °F 70% 30.38 in 10.0 mi WSW 3.5 mph - N/A   Clear
8:12 PM -18.4 °F - -25.4 °F 70% 30.38 in 10.0 mi Calm Calm - N/A   Clear
8:32 PM -19.3 °F -29.9 °F -26.0 °F 71% 30.37 in 10.0 mi WSW 3.5 mph - N/A   Clear
8:53 PM -18.8 °F -31.8 °F -25.1 °F 73% 30.36 in 10.0 mi WSW 4.6 mph - N/A   Clear
9:12 PM -19.7 °F -32.8 °F -26.3 °F 71% 30.36 in 10.0 mi WSW 4.6 mph - N/A   Clear
9:33 PM -19.8 °F -33.1 °F -26.3 °F 72% 30.36 in 10.0 mi WSW 4.6 mph - N/A   Clear
9:52 PM -19.7 °F -32.8 °F -25.2 °F 75% 30.36 in 10.0 mi WSW 4.6 mph - N/A   Clear
10:12 PM -18.6 °F -33.6 °F -24.5 °F 74% 30.35 in 10.0 mi WSW 5.8 mph - N/A   Clear
10:32 PM -20.4 °F -35.7 °F -26.5 °F 73% 30.34 in 10.0 mi West 5.8 mph - N/A   Clear
10:52 PM -17.9 °F -32.8 °F -23.4 °F 76% 30.33 in 10.0 mi WSW 5.8 mph - N/A   Clear
11:12 PM -18.2 °F -34.9 °F -24.2 °F 74% 30.33 in 10.0 mi West 6.9 mph - N/A   Clear
11:33 PM -18.9 °F -34.0 °F -24.5 °F 76% 30.33 in 10.0 mi West 5.8 mph - N/A   Clear
11:53 PM -18.4 °F -33.4 °F -23.8 °F 76% 30.33 in 10.0 mi WSW 5.8 mph - N/A   Clear